メインページ
METAR-TAF:

METAR-TAF

空港 :

Chautauqua County/Jamestown Airport

Jamestown, ニューヨーク, アメリカ合衆国

緯度: 42-09N, 経度: 079-16W, 海抜: 525m

現時点の気象観測

当レポートは12分前の17:43(UTC)に作成
変向風 4kt
気温 26°C
湿度 70%
気圧 1015 hPa
視程: 16.1km
高度2500ftの雲は散在している
高度7500ftの千切れ雲あり

METAR: KJHW 211743Z AUTO VRB04KT 10SM SCT025 BKN075 26/20 A2997 RMK AO2

時間: 13:55 (17:55 UTC)

予報

当レポートは15分前の17:40(UTC)に作成
予報は21日の 18時(UTC)から 22日の 18時(UTC)まで有効
北西の風 12kt
視程: 10km
高度2500ftの雲は散在している
高度15000ftの千切れ雲あり
21日の 2100時(UTC)から
北西の風 8kt
視程: 10km
高度20000ftの千切れ雲あり
22日の 0100時(UTC)から
変向風 3kt
視程: 10km
高度20000ftの雲は散在している
22日の 0700時(UTC)から
変向風 3kt
視程: 10km
高度6000ftの曇り
近辺でにわか雨
22日の 1100時(UTC)から
変向風 3kt
視程: 9.7km
高度2500ftの曇り
弱いにわか雨
22日の 1600時(UTC)から
変向風 3kt
視程: 10km
高度4000ftの曇り

TAF: KJHW 211740Z 2118/2218 31012KT P6SM SCT025 BKN150 FM212100 31008KT P6SM BKN200 FM220100 VRB03KT P6SM SCT200 FM220700 VRB03KT P6SM VCSH OVC060 FM221100 VRB03KT 6SM -SHRA OVC025 FM221600 VRB03KT P6SM OVC040

4,000以上の空港の気象観測と天気予報(METAR報とTAF報)

利用可能な観測所は地図上に黄色い丸と赤い丸で示す。

丸の上にカーソルを重ねると観測所名を参照できる。

次にクリックすると気象観測と天気予報を参照できる。

マップの切り替え:黒色「×」印の緑ボタンをクリックして拡大、「-」印の緑ボタンをクリックして縮小、緑色の三角印をクリックして隣りの地図に切り替え


METAR-TAF: